sensor_id;sensor_type;location;lat;lon;timestamp;temperature;humidity
47090;DHT22;32840;52.516;13.294;2024-03-17T00:02:44;7.50;99.20
47090;DHT22;32840;52.516;13.294;2024-03-17T00:05:30;7.40;99.30
47090;DHT22;32840;52.516;13.294;2024-03-17T00:08:15;7.40;99.60
47090;DHT22;32840;52.516;13.294;2024-03-17T00:11:00;7.40;99.70
47090;DHT22;32840;52.516;13.294;2024-03-17T00:13:44;7.40;99.80
47090;DHT22;32840;52.516;13.294;2024-03-17T00:16:29;7.40;99.90
47090;DHT22;32840;52.516;13.294;2024-03-17T00:19:15;7.40;99.90
47090;DHT22;32840;52.516;13.294;2024-03-17T00:22:01;7.50;99.90
47090;DHT22;32840;52.516;13.294;2024-03-17T00:24:46;7.50;99.90
47090;DHT22;32840;52.516;13.294;2024-03-17T00:27:31;7.40;99.90
47090;DHT22;32840;52.516;13.294;2024-03-17T00:30:16;7.40;99.90
47090;DHT22;32840;52.516;13.294;2024-03-17T00:33:01;7.30;99.90
47090;DHT22;32840;52.516;13.294;2024-03-17T00:35:45;7.30;99.90
47090;DHT22;32840;52.516;13.294;2024-03-17T00:38:30;7.30;99.90
47090;DHT22;32840;52.516;13.294;2024-03-17T00:41:15;7.30;99.90
47090;DHT22;32840;52.516;13.294;2024-03-17T00:44:00;7.30;99.90
47090;DHT22;32840;52.516;13.294;2024-03-17T00:46:45;7.30;99.90
47090;DHT22;32840;52.516;13.294;2024-03-17T00:49:30;7.20;99.90
47090;DHT22;32840;52.516;13.294;2024-03-17T00:52:17;7.30;99.90
47090;DHT22;32840;52.516;13.294;2024-03-17T00:55:02;7.30;99.90
47090;DHT22;32840;52.516;13.294;2024-03-17T00:57:47;7.30;99.90
47090;DHT22;32840;52.516;13.294;2024-03-17T01:00:32;7.20;99.90
47090;DHT22;32840;52.516;13.294;2024-03-17T01:03:19;7.20;99.90
47090;DHT22;32840;52.516;13.294;2024-03-17T01:06:04;7.10;99.90
47090;DHT22;32840;52.516;13.294;2024-03-17T01:08:49;7.10;99.90
47090;DHT22;32840;52.516;13.294;2024-03-17T01:11:35;7.10;99.90
47090;DHT22;32840;52.516;13.294;2024-03-17T01:14:20;7.10;99.90
47090;DHT22;32840;52.516;13.294;2024-03-17T01:17:05;7.10;99.90
47090;DHT22;32840;52.516;13.294;2024-03-17T01:19:51;7.00;99.90
47090;DHT22;32840;52.516;13.294;2024-03-17T01:22:37;7.00;99.90
47090;DHT22;32840;52.516;13.294;2024-03-17T01:25:24;7.00;99.90
47090;DHT22;32840;52.516;13.294;2024-03-17T01:28:14;7.00;99.90
47090;DHT22;32840;52.516;13.294;2024-03-17T01:31:00;7.00;99.90
47090;DHT22;32840;52.516;13.294;2024-03-17T01:33:45;6.90;99.90
47090;DHT22;32840;52.516;13.294;2024-03-17T01:36:31;6.80;99.90
47090;DHT22;32840;52.516;13.294;2024-03-17T01:39:16;6.80;99.90
47090;DHT22;32840;52.516;13.294;2024-03-17T01:42:02;6.80;99.90
47090;DHT22;32840;52.516;13.294;2024-03-17T01:44:47;6.80;99.90
47090;DHT22;32840;52.516;13.294;2024-03-17T01:47:34;6.80;99.90
47090;DHT22;32840;52.516;13.294;2024-03-17T01:50:19;6.80;99.90
47090;DHT22;32840;52.516;13.294;2024-03-17T01:53:11;6.70;99.90
47090;DHT22;32840;52.516;13.294;2024-03-17T01:55:59;6.70;99.90
47090;DHT22;32840;52.516;13.294;2024-03-17T01:58:45;6.70;99.90
47090;DHT22;32840;52.516;13.294;2024-03-17T02:01:29;6.80;99.90
47090;DHT22;32840;52.516;13.294;2024-03-17T02:04:15;6.80;99.90
47090;DHT22;32840;52.516;13.294;2024-03-17T02:07:03;6.80;99.90
47090;DHT22;32840;52.516;13.294;2024-03-17T02:09:48;6.70;99.90
47090;DHT22;32840;52.516;13.294;2024-03-17T02:12:35;6.50;99.90
47090;DHT22;32840;52.516;13.294;2024-03-17T02:15:20;6.60;99.90
47090;DHT22;32840;52.516;13.294;2024-03-17T02:18:05;6.50;99.90
47090;DHT22;32840;52.516;13.294;2024-03-17T02:20:51;6.50;99.90
47090;DHT22;32840;52.516;13.294;2024-03-17T02:23:45;6.40;99.90
47090;DHT22;32840;52.516;13.294;2024-03-17T02:26:30;6.40;99.90
47090;DHT22;32840;52.516;13.294;2024-03-17T02:29:15;6.40;99.90
47090;DHT22;32840;52.516;13.294;2024-03-17T02:31:59;6.30;99.90
47090;DHT22;32840;52.516;13.294;2024-03-17T02:34:44;6.30;99.90
47090;DHT22;32840;52.516;13.294;2024-03-17T02:37:31;6.20;99.90
47090;DHT22;32840;52.516;13.294;2024-03-17T02:40:15;6.20;99.90
47090;DHT22;32840;52.516;13.294;2024-03-17T02:43:00;6.40;99.90
47090;DHT22;32840;52.516;13.294;2024-03-17T02:45:45;6.50;99.90
47090;DHT22;32840;52.516;13.294;2024-03-17T02:48:31;6.30;99.90
47090;DHT22;32840;52.516;13.294;2024-03-17T02:51:17;6.30;99.90
47090;DHT22;32840;52.516;13.294;2024-03-17T02:54:02;6.30;99.90
47090;DHT22;32840;52.516;13.294;2024-03-17T02:56:50;6.30;99.90
47090;DHT22;32840;52.516;13.294;2024-03-17T02:59:35;6.10;99.90
47090;DHT22;32840;52.516;13.294;2024-03-17T03:02:20;6.10;99.90
47090;DHT22;32840;52.516;13.294;2024-03-17T03:05:05;6.10;99.90
47090;DHT22;32840;52.516;13.294;2024-03-17T03:07:50;6.00;99.90
47090;DHT22;32840;52.516;13.294;2024-03-17T03:10:36;6.00;99.90
47090;DHT22;32840;52.516;13.294;2024-03-17T03:13:21;5.90;99.90
47090;DHT22;32840;52.516;13.294;2024-03-17T03:16:07;5.90;99.90
47090;DHT22;32840;52.516;13.294;2024-03-17T03:18:55;5.90;99.90
47090;DHT22;32840;52.516;13.294;2024-03-17T03:21:40;6.00;99.90
47090;DHT22;32840;52.516;13.294;2024-03-17T03:24:25;6.00;99.90
47090;DHT22;32840;52.516;13.294;2024-03-17T03:27:10;6.00;99.90
47090;DHT22;32840;52.516;13.294;2024-03-17T03:29:54;5.90;99.90
47090;DHT22;32840;52.516;13.294;2024-03-17T03:32:42;5.80;99.90
47090;DHT22;32840;52.516;13.294;2024-03-17T03:35:28;5.70;99.90
47090;DHT22;32840;52.516;13.294;2024-03-17T03:38:14;5.70;99.90
47090;DHT22;32840;52.516;13.294;2024-03-17T03:41:14;5.70;99.90
47090;DHT22;32840;52.516;13.294;2024-03-17T03:43:59;5.80;99.90
47090;DHT22;32840;52.516;13.294;2024-03-17T03:46:44;5.90;99.90
47090;DHT22;32840;52.516;13.294;2024-03-17T03:49:29;5.80;99.90
47090;DHT22;32840;52.516;13.294;2024-03-17T03:52:15;5.70;99.90
47090;DHT22;32840;52.516;13.294;2024-03-17T03:55:00;5.70;99.90
47090;DHT22;32840;52.516;13.294;2024-03-17T03:57:46;5.70;99.90
47090;DHT22;32840;52.516;13.294;2024-03-17T04:00:32;5.70;99.90
47090;DHT22;32840;52.516;13.294;2024-03-17T04:03:17;5.70;99.90
47090;DHT22;32840;52.516;13.294;2024-03-17T04:06:08;5.70;99.90
47090;DHT22;32840;52.516;13.294;2024-03-17T04:08:53;5.60;99.90
47090;DHT22;32840;52.516;13.294;2024-03-17T04:11:38;5.60;99.90
47090;DHT22;32840;52.516;13.294;2024-03-17T04:14:23;5.50;99.90
47090;DHT22;32840;52.516;13.294;2024-03-17T04:17:08;5.60;99.90
47090;DHT22;32840;52.516;13.294;2024-03-17T04:19:54;5.60;99.90
47090;DHT22;32840;52.516;13.294;2024-03-17T04:22:39;5.60;99.90
47090;DHT22;32840;52.516;13.294;2024-03-17T04:25:25;5.50;99.90
47090;DHT22;32840;52.516;13.294;2024-03-17T04:28:10;5.50;99.90
47090;DHT22;32840;52.516;13.294;2024-03-17T04:31:07;5.50;99.90
47090;DHT22;32840;52.516;13.294;2024-03-17T04:33:52;5.60;99.90
47090;DHT22;32840;52.516;13.294;2024-03-17T04:36:37;5.70;99.90
47090;DHT22;32840;52.516;13.294;2024-03-17T04:39:22;5.60;99.90
47090;DHT22;32840;52.516;13.294;2024-03-17T04:42:07;5.50;99.90
47090;DHT22;32840;52.516;13.294;2024-03-17T04:44:52;5.50;99.90
47090;DHT22;32840;52.516;13.294;2024-03-17T04:47:37;5.60;99.90
47090;DHT22;32840;52.516;13.294;2024-03-17T04:50:22;5.60;99.90
47090;DHT22;32840;52.516;13.294;2024-03-17T04:53:07;5.60;99.90
47090;DHT22;32840;52.516;13.294;2024-03-17T04:56:03;5.60;99.90
47090;DHT22;32840;52.516;13.294;2024-03-17T04:58:49;5.50;99.90
47090;DHT22;32840;52.516;13.294;2024-03-17T05:01:33;5.50;99.90
47090;DHT22;32840;52.516;13.294;2024-03-17T05:04:21;5.50;99.90
47090;DHT22;32840;52.516;13.294;2024-03-17T05:07:05;5.50;99.90
47090;DHT22;32840;52.516;13.294;2024-03-17T05:09:50;5.30;99.90
47090;DHT22;32840;52.516;13.294;2024-03-17T05:12:35;5.40;99.90
47090;DHT22;32840;52.516;13.294;2024-03-17T05:15:20;5.50;99.90
47090;DHT22;32840;52.516;13.294;2024-03-17T05:18:05;5.40;99.90
47090;DHT22;32840;52.516;13.294;2024-03-17T05:21:03;5.40;99.90
47090;DHT22;32840;52.516;13.294;2024-03-17T05:23:48;5.50;99.90
47090;DHT22;32840;52.516;13.294;2024-03-17T05:26:35;5.50;99.90
47090;DHT22;32840;52.516;13.294;2024-03-17T05:29:21;5.40;99.90
47090;DHT22;32840;52.516;13.294;2024-03-17T05:32:07;5.30;99.90
47090;DHT22;32840;52.516;13.294;2024-03-17T05:34:52;5.50;99.90
47090;DHT22;32840;52.516;13.294;2024-03-17T05:37:37;5.50;99.90
47090;DHT22;32840;52.516;13.294;2024-03-17T05:40:22;5.50;99.90
47090;DHT22;32840;52.516;13.294;2024-03-17T05:43:06;5.60;99.90
47090;DHT22;32840;52.516;13.294;2024-03-17T05:45:57;5.60;99.90
47090;DHT22;32840;52.516;13.294;2024-03-17T05:48:42;5.60;99.90
47090;DHT22;32840;52.516;13.294;2024-03-17T05:51:28;5.50;99.90
47090;DHT22;32840;52.516;13.294;2024-03-17T05:54:14;5.50;99.90
47090;DHT22;32840;52.516;13.294;2024-03-17T05:56:59;5.50;99.90
47090;DHT22;32840;52.516;13.294;2024-03-17T05:59:45;5.50;99.90
47090;DHT22;32840;52.516;13.294;2024-03-17T06:02:30;5.50;99.90
47090;DHT22;32840;52.516;13.294;2024-03-17T06:05:16;5.40;99.90
47090;DHT22;32840;52.516;13.294;2024-03-17T06:08:02;5.40;99.90
47090;DHT22;32840;52.516;13.294;2024-03-17T06:10:49;5.30;99.90
47090;DHT22;32840;52.516;13.294;2024-03-17T06:13:34;5.40;99.90
47090;DHT22;32840;52.516;13.294;2024-03-17T06:16:18;5.40;99.90
47090;DHT22;32840;52.516;13.294;2024-03-17T06:19:04;5.40;99.90
47090;DHT22;32840;52.516;13.294;2024-03-17T06:21:49;5.50;99.90
47090;DHT22;32840;52.516;13.294;2024-03-17T06:24:35;5.50;99.90
47090;DHT22;32840;52.516;13.294;2024-03-17T06:27:23;5.60;99.90
47090;DHT22;32840;52.516;13.294;2024-03-17T06:30:12;5.60;99.90
47090;DHT22;32840;52.516;13.294;2024-03-17T06:33:02;5.60;99.90
47090;DHT22;32840;52.516;13.294;2024-03-17T06:35:47;5.60;99.90
47090;DHT22;32840;52.516;13.294;2024-03-17T06:38:32;5.60;99.90
47090;DHT22;32840;52.516;13.294;2024-03-17T06:41:17;5.70;99.90
47090;DHT22;32840;52.516;13.294;2024-03-17T06:44:02;5.70;99.90
47090;DHT22;32840;52.516;13.294;2024-03-17T06:46:47;5.80;99.90
47090;DHT22;32840;52.516;13.294;2024-03-17T06:49:32;5.70;99.90
47090;DHT22;32840;52.516;13.294;2024-03-17T06:52:17;5.90;99.90
47090;DHT22;32840;52.516;13.294;2024-03-17T06:55:04;6.00;99.90
47090;DHT22;32840;52.516;13.294;2024-03-17T06:57:49;6.00;99.90
47090;DHT22;32840;52.516;13.294;2024-03-17T07:00:34;6.10;99.90
47090;DHT22;32840;52.516;13.294;2024-03-17T07:03:19;6.20;99.90
47090;DHT22;32840;52.516;13.294;2024-03-17T07:06:03;6.20;99.90
47090;DHT22;32840;52.516;13.294;2024-03-17T07:08:50;6.40;99.90
47090;DHT22;32840;52.516;13.294;2024-03-17T07:11:35;6.50;99.90
47090;DHT22;32840;52.516;13.294;2024-03-17T07:14:20;6.60;99.90
47090;DHT22;32840;52.516;13.294;2024-03-17T07:17:05;6.80;99.90
47090;DHT22;32840;52.516;13.294;2024-03-17T07:19:51;7.00;99.90
47090;DHT22;32840;52.516;13.294;2024-03-17T07:22:38;7.10;99.90
47090;DHT22;32840;52.516;13.294;2024-03-17T07:25:22;7.10;99.90
47090;DHT22;32840;52.516;13.294;2024-03-17T07:28:08;7.10;99.90
47090;DHT22;32840;52.516;13.294;2024-03-17T07:30:54;7.20;99.90
47090;DHT22;32840;52.516;13.294;2024-03-17T07:33:39;7.30;99.90
47090;DHT22;32840;52.516;13.294;2024-03-17T07:36:24;7.20;99.90
47090;DHT22;32840;52.516;13.294;2024-03-17T07:39:10;7.10;99.90
47090;DHT22;32840;52.516;13.294;2024-03-17T07:41:57;7.20;99.90
47090;DHT22;32840;52.516;13.294;2024-03-17T07:44:44;7.20;99.90
47090;DHT22;32840;52.516;13.294;2024-03-17T07:47:29;7.20;99.90
47090;DHT22;32840;52.516;13.294;2024-03-17T07:50:20;7.30;99.90
47090;DHT22;32840;52.516;13.294;2024-03-17T07:53:04;7.20;99.90
47090;DHT22;32840;52.516;13.294;2024-03-17T07:56:01;7.10;99.90
47090;DHT22;32840;52.516;13.294;2024-03-17T07:58:53;7.00;99.90
47090;DHT22;32840;52.516;13.294;2024-03-17T08:01:38;7.00;99.90
47090;DHT22;32840;52.516;13.294;2024-03-17T08:04:23;6.90;99.90
47090;DHT22;32840;52.516;13.294;2024-03-17T08:07:08;7.00;99.90
47090;DHT22;32840;52.516;13.294;2024-03-17T08:09:54;7.10;99.90
47090;DHT22;32840;52.516;13.294;2024-03-17T08:12:42;7.10;99.90
47090;DHT22;32840;52.516;13.294;2024-03-17T08:15:30;7.30;99.90
47090;DHT22;32840;52.516;13.294;2024-03-17T08:18:15;7.40;99.90
47090;DHT22;32840;52.516;13.294;2024-03-17T08:21:01;7.50;99.90
47090;DHT22;32840;52.516;13.294;2024-03-17T08:23:48;7.60;99.90
47090;DHT22;32840;52.516;13.294;2024-03-17T08:26:34;7.80;99.90
47090;DHT22;32840;52.516;13.294;2024-03-17T08:29:19;8.10;99.90
47090;DHT22;32840;52.516;13.294;2024-03-17T08:32:04;8.50;99.90
47090;DHT22;32840;52.516;13.294;2024-03-17T08:34:49;8.50;99.90
47090;DHT22;32840;52.516;13.294;2024-03-17T08:37:36;8.60;99.90
47090;DHT22;32840;52.516;13.294;2024-03-17T08:40:21;8.60;99.90
47090;DHT22;32840;52.516;13.294;2024-03-17T08:43:08;9.20;99.90
47090;DHT22;32840;52.516;13.294;2024-03-17T08:45:57;9.30;99.90
47090;DHT22;32840;52.516;13.294;2024-03-17T08:48:44;9.20;99.90
47090;DHT22;32840;52.516;13.294;2024-03-17T08:51:31;9.00;99.90
47090;DHT22;32840;52.516;13.294;2024-03-17T08:55:10;9.00;99.80
47090;DHT22;32840;52.516;13.294;2024-03-17T08:58:25;9.00;98.70
47090;DHT22;32840;52.516;13.294;2024-03-17T09:01:22;8.90;98.80
47090;DHT22;32840;52.516;13.294;2024-03-17T09:04:15;9.00;99.30
47090;DHT22;32840;52.516;13.294;2024-03-17T09:07:06;9.20;98.00
47090;DHT22;32840;52.516;13.294;2024-03-17T09:09:52;9.10;97.00
47090;DHT22;32840;52.516;13.294;2024-03-17T09:12:37;9.10;97.20
47090;DHT22;32840;52.516;13.294;2024-03-17T09:15:22;9.10;97.10
47090;DHT22;32840;52.516;13.294;2024-03-17T09:18:10;9.10;97.10
47090;DHT22;32840;52.516;13.294;2024-03-17T09:20:59;9.00;97.00
47090;DHT22;32840;52.516;13.294;2024-03-17T09:23:44;8.80;97.40
47090;DHT22;32840;52.516;13.294;2024-03-17T09:26:28;9.00;97.40
47090;DHT22;32840;52.516;13.294;2024-03-17T09:29:15;9.00;96.40
47090;DHT22;32840;52.516;13.294;2024-03-17T09:32:09;8.90;96.20
47090;DHT22;32840;52.516;13.294;2024-03-17T09:35:04;8.90;96.30
47090;DHT22;32840;52.516;13.294;2024-03-17T09:37:57;9.00;96.60
47090;DHT22;32840;52.516;13.294;2024-03-17T09:40:46;9.00;96.00
47090;DHT22;32840;52.516;13.294;2024-03-17T09:43:33;8.80;96.50
47090;DHT22;32840;52.516;13.294;2024-03-17T09:46:19;8.90;96.70
47090;DHT22;32840;52.516;13.294;2024-03-17T09:49:04;8.70;96.10
47090;DHT22;32840;52.516;13.294;2024-03-17T09:51:49;8.70;96.40
47090;DHT22;32840;52.516;13.294;2024-03-17T09:54:37;8.60;95.80
47090;DHT22;32840;52.516;13.294;2024-03-17T09:57:28;8.60;96.20
47090;DHT22;32840;52.516;13.294;2024-03-17T10:00:20;8.90;96.00
47090;DHT22;32840;52.516;13.294;2024-03-17T10:03:05;9.30;95.20
47090;DHT22;32840;52.516;13.294;2024-03-17T10:05:59;9.50;94.60
47090;DHT22;32840;52.516;13.294;2024-03-17T10:08:59;9.50;94.30
47090;DHT22;32840;52.516;13.294;2024-03-17T10:11:49;9.50;94.20
47090;DHT22;32840;52.516;13.294;2024-03-17T10:14:34;9.40;94.20
47090;DHT22;32840;52.516;13.294;2024-03-17T10:17:29;9.40;94.20
47090;DHT22;32840;52.516;13.294;2024-03-17T10:20:20;9.40;93.80
47090;DHT22;32840;52.516;13.294;2024-03-17T10:23:10;9.20;93.40
47090;DHT22;32840;52.516;13.294;2024-03-17T10:25:56;9.00;93.50
47090;DHT22;32840;52.516;13.294;2024-03-17T10:28:47;9.40;93.80
47090;DHT22;32840;52.516;13.294;2024-03-17T10:31:38;9.70;92.70
47090;DHT22;32840;52.516;13.294;2024-03-17T10:34:31;9.60;92.90
47090;DHT22;32840;52.516;13.294;2024-03-17T10:37:21;9.70;92.90
47090;DHT22;32840;52.516;13.294;2024-03-17T10:40:11;9.90;91.70
47090;DHT22;32840;52.516;13.294;2024-03-17T10:43:06;9.70;91.80
47090;DHT22;32840;52.516;13.294;2024-03-17T10:45:52;9.60;91.90
47090;DHT22;32840;52.516;13.294;2024-03-17T10:48:39;9.70;91.50
47090;DHT22;32840;52.516;13.294;2024-03-17T10:51:25;9.60;91.70
47090;DHT22;32840;52.516;13.294;2024-03-17T10:54:22;9.80;92.10
47090;DHT22;32840;52.516;13.294;2024-03-17T11:00:08;9.80;91.30
47090;DHT22;32840;52.516;13.294;2024-03-17T11:02:55;9.70;91.60
47090;DHT22;32840;52.516;13.294;2024-03-17T11:05:40;9.50;90.90
47090;DHT22;32840;52.516;13.294;2024-03-17T11:08:25;9.40;91.20
47090;DHT22;32840;52.516;13.294;2024-03-17T11:11:10;9.50;91.60
47090;DHT22;32840;52.516;13.294;2024-03-17T11:14:17;9.70;91.60
47090;DHT22;32840;52.516;13.294;2024-03-17T11:17:21;9.70;89.20
47090;DHT22;32840;52.516;13.294;2024-03-17T11:20:30;9.80;89.40
47090;DHT22;32840;52.516;13.294;2024-03-17T11:23:32;9.60;87.60
47090;DHT22;32840;52.516;13.294;2024-03-17T11:26:30;9.50;88.50
47090;DHT22;32840;52.516;13.294;2024-03-17T11:29:30;9.40;87.60
47090;DHT22;32840;52.516;13.294;2024-03-17T11:32:26;9.30;87.90
47090;DHT22;32840;52.516;13.294;2024-03-17T11:35:15;9.30;86.40
47090;DHT22;32840;52.516;13.294;2024-03-17T11:38:03;9.20;88.40
47090;DHT22;32840;52.516;13.294;2024-03-17T11:44:24;9.10;89.50
47090;DHT22;32840;52.516;13.294;2024-03-17T11:47:10;9.20;88.10
47090;DHT22;32840;52.516;13.294;2024-03-17T11:49:55;9.30;87.80
47090;DHT22;32840;52.516;13.294;2024-03-17T11:52:41;9.50;88.20
47090;DHT22;32840;52.516;13.294;2024-03-17T11:55:28;9.80;86.00
47090;DHT22;32840;52.516;13.294;2024-03-17T11:58:13;9.80;83.80
47090;DHT22;32840;52.516;13.294;2024-03-17T12:01:00;10.00;83.90
47090;DHT22;32840;52.516;13.294;2024-03-17T12:03:45;10.20;83.80
47090;DHT22;32840;52.516;13.294;2024-03-17T12:06:32;10.40;82.50
47090;DHT22;32840;52.516;13.294;2024-03-17T12:09:25;10.60;82.10
47090;DHT22;32840;52.516;13.294;2024-03-17T12:12:18;10.50;79.80
47090;DHT22;32840;52.516;13.294;2024-03-17T12:15:20;10.40;79.00
47090;DHT22;32840;52.516;13.294;2024-03-17T12:18:20;10.30;76.30
47090;DHT22;32840;52.516;13.294;2024-03-17T12:21:04;10.30;75.00
47090;DHT22;32840;52.516;13.294;2024-03-17T12:23:49;10.30;74.70
47090;DHT22;32840;52.516;13.294;2024-03-17T12:26:34;10.30;75.10
47090;DHT22;32840;52.516;13.294;2024-03-17T12:29:31;10.30;76.30
47090;DHT22;32840;52.516;13.294;2024-03-17T12:32:38;10.30;75.80
47090;DHT22;32840;52.516;13.294;2024-03-17T12:35:23;10.20;76.30
47090;DHT22;32840;52.516;13.294;2024-03-17T12:38:26;10.10;77.20
47090;DHT22;32840;52.516;13.294;2024-03-17T12:41:20;10.20;76.50
47090;DHT22;32840;52.516;13.294;2024-03-17T12:44:19;10.20;78.10
47090;DHT22;32840;52.516;13.294;2024-03-17T12:47:05;10.30;79.40
47090;DHT22;32840;52.516;13.294;2024-03-17T12:49:54;10.20;76.80
47090;DHT22;32840;52.516;13.294;2024-03-17T12:52:40;10.40;77.30
47090;DHT22;32840;52.516;13.294;2024-03-17T12:55:25;10.80;77.80
47090;DHT22;32840;52.516;13.294;2024-03-17T12:58:28;11.00;74.10
47090;DHT22;32840;52.516;13.294;2024-03-17T13:01:32;10.80;72.90
47090;DHT22;32840;52.516;13.294;2024-03-17T13:04:17;10.80;76.20
47090;DHT22;32840;52.516;13.294;2024-03-17T13:07:10;11.10;71.50
47090;DHT22;32840;52.516;13.294;2024-03-17T13:09:55;10.40;72.50
47090;DHT22;32840;52.516;13.294;2024-03-17T13:12:42;10.20;72.60
47090;DHT22;32840;52.516;13.294;2024-03-17T13:15:27;10.30;74.90
47090;DHT22;32840;52.516;13.294;2024-03-17T13:18:19;10.30;74.10
47090;DHT22;32840;52.516;13.294;2024-03-17T13:21:04;10.20;74.10
47090;DHT22;32840;52.516;13.294;2024-03-17T13:23:49;10.00;74.10
47090;DHT22;32840;52.516;13.294;2024-03-17T13:26:34;9.90;75.10
47090;DHT22;32840;52.516;13.294;2024-03-17T13:29:20;10.00;74.80
47090;DHT22;32840;52.516;13.294;2024-03-17T13:32:05;10.10;75.00
47090;DHT22;32840;52.516;13.294;2024-03-17T13:34:52;10.30;75.00
47090;DHT22;32840;52.516;13.294;2024-03-17T13:37:37;10.50;73.10
47090;DHT22;32840;52.516;13.294;2024-03-17T13:40:23;10.70;73.40
47090;DHT22;32840;52.516;13.294;2024-03-17T13:43:08;10.80;72.80
47090;DHT22;32840;52.516;13.294;2024-03-17T13:45:53;10.80;71.10
47090;DHT22;32840;52.516;13.294;2024-03-17T13:48:41;10.70;71.50
47090;DHT22;32840;52.516;13.294;2024-03-17T13:51:26;10.60;72.40
47090;DHT22;32840;52.516;13.294;2024-03-17T13:54:11;10.70;72.90
47090;DHT22;32840;52.516;13.294;2024-03-17T13:56:56;10.70;72.30
47090;DHT22;32840;52.516;13.294;2024-03-17T13:59:43;10.70;72.40
47090;DHT22;32840;52.516;13.294;2024-03-17T14:02:28;10.70;71.80
47090;DHT22;32840;52.516;13.294;2024-03-17T14:05:21;10.50;71.80
47090;DHT22;32840;52.516;13.294;2024-03-17T14:08:06;10.40;72.50
47090;DHT22;32840;52.516;13.294;2024-03-17T14:10:51;10.40;73.10
47090;DHT22;32840;52.516;13.294;2024-03-17T14:13:36;10.20;72.00
47090;DHT22;32840;52.516;13.294;2024-03-17T14:16:21;10.20;72.40
47090;DHT22;32840;52.516;13.294;2024-03-17T14:19:06;10.20;72.00
47090;DHT22;32840;52.516;13.294;2024-03-17T14:21:53;10.20;71.80
47090;DHT22;32840;52.516;13.294;2024-03-17T14:24:39;10.30;72.10
47090;DHT22;32840;52.516;13.294;2024-03-17T14:27:25;10.40;71.70
47090;DHT22;32840;52.516;13.294;2024-03-17T14:30:19;10.30;71.30
47090;DHT22;32840;52.516;13.294;2024-03-17T14:33:05;10.40;71.10
47090;DHT22;32840;52.516;13.294;2024-03-17T14:35:57;10.50;72.00
47090;DHT22;32840;52.516;13.294;2024-03-17T14:38:42;10.50;71.50
47090;DHT22;32840;52.516;13.294;2024-03-17T14:41:29;10.60;71.60
47090;DHT22;32840;52.516;13.294;2024-03-17T14:44:15;10.50;71.10
47090;DHT22;32840;52.516;13.294;2024-03-17T14:47:01;10.50;71.70
47090;DHT22;32840;52.516;13.294;2024-03-17T14:49:48;10.50;71.90
47090;DHT22;32840;52.516;13.294;2024-03-17T14:52:34;10.50;71.70
47090;DHT22;32840;52.516;13.294;2024-03-17T14:55:19;10.40;71.70
47090;DHT22;32840;52.516;13.294;2024-03-17T14:58:07;10.30;72.00
47090;DHT22;32840;52.516;13.294;2024-03-17T15:00:51;10.40;71.90
47090;DHT22;32840;52.516;13.294;2024-03-17T15:03:38;10.40;71.20
47090;DHT22;32840;52.516;13.294;2024-03-17T15:06:30;10.40;71.40
47090;DHT22;32840;52.516;13.294;2024-03-17T15:09:22;10.30;71.10
47090;DHT22;32840;52.516;13.294;2024-03-17T15:12:09;10.30;71.70
47090;DHT22;32840;52.516;13.294;2024-03-17T15:14:54;10.30;71.70
47090;DHT22;32840;52.516;13.294;2024-03-17T15:17:40;10.20;72.30
47090;DHT22;32840;52.516;13.294;2024-03-17T15:20:25;10.20;71.90
47090;DHT22;32840;52.516;13.294;2024-03-17T15:23:13;10.10;71.90
47090;DHT22;32840;52.516;13.294;2024-03-17T15:26:07;10.00;71.30
47090;DHT22;32840;52.516;13.294;2024-03-17T15:28:57;9.90;72.00
47090;DHT22;32840;52.516;13.294;2024-03-17T15:31:47;9.90;71.20
47090;DHT22;32840;52.516;13.294;2024-03-17T15:34:32;9.90;71.70
47090;DHT22;32840;52.516;13.294;2024-03-17T15:37:21;9.90;72.00
47090;DHT22;32840;52.516;13.294;2024-03-17T15:40:07;10.00;71.90
47090;DHT22;32840;52.516;13.294;2024-03-17T15:43:03;10.00;71.90
47090;DHT22;32840;52.516;13.294;2024-03-17T15:45:48;10.00;72.00
47090;DHT22;32840;52.516;13.294;2024-03-17T15:48:34;9.90;72.30
47090;DHT22;32840;52.516;13.294;2024-03-17T15:51:21;9.90;72.60
47090;DHT22;32840;52.516;13.294;2024-03-17T15:54:07;9.80;72.40
47090;DHT22;32840;52.516;13.294;2024-03-17T15:56:55;9.90;72.70
47090;DHT22;32840;52.516;13.294;2024-03-17T15:59:42;9.80;71.90
47090;DHT22;32840;52.516;13.294;2024-03-17T16:02:28;9.80;72.20
47090;DHT22;32840;52.516;13.294;2024-03-17T16:05:16;9.80;72.60
47090;DHT22;32840;52.516;13.294;2024-03-17T16:08:05;9.80;72.50
47090;DHT22;32840;52.516;13.294;2024-03-17T16:10:52;9.80;72.60
47090;DHT22;32840;52.516;13.294;2024-03-17T16:13:41;9.80;72.10
47090;DHT22;32840;52.516;13.294;2024-03-17T16:16:26;9.80;72.30
47090;DHT22;32840;52.516;13.294;2024-03-17T16:19:14;9.70;72.80
47090;DHT22;32840;52.516;13.294;2024-03-17T16:22:00;9.70;73.50
47090;DHT22;32840;52.516;13.294;2024-03-17T16:24:45;9.70;73.90
47090;DHT22;32840;52.516;13.294;2024-03-17T16:27:32;9.70;73.90
47090;DHT22;32840;52.516;13.294;2024-03-17T16:30:22;9.70;74.00
47090;DHT22;32840;52.516;13.294;2024-03-17T16:33:08;9.70;73.90
47090;DHT22;32840;52.516;13.294;2024-03-17T16:35:59;9.70;74.50
47090;DHT22;32840;52.516;13.294;2024-03-17T16:38:45;9.60;73.80
47090;DHT22;32840;52.516;13.294;2024-03-17T16:41:31;9.60;74.20
47090;DHT22;32840;52.516;13.294;2024-03-17T16:44:28;9.60;74.80
47090;DHT22;32840;52.516;13.294;2024-03-17T16:47:36;9.50;74.80
47090;DHT22;32840;52.516;13.294;2024-03-17T16:50:23;9.40;75.10
47090;DHT22;32840;52.516;13.294;2024-03-17T16:53:08;9.40;75.50
47090;DHT22;32840;52.516;13.294;2024-03-17T16:55:58;9.40;75.80
47090;DHT22;32840;52.516;13.294;2024-03-17T16:58:44;9.40;76.10
47090;DHT22;32840;52.516;13.294;2024-03-17T17:01:30;9.30;75.90
47090;DHT22;32840;52.516;13.294;2024-03-17T17:04:18;9.20;76.30
47090;DHT22;32840;52.516;13.294;2024-03-17T17:07:09;9.20;76.50
47090;DHT22;32840;52.516;13.294;2024-03-17T17:09:54;9.20;77.20
47090;DHT22;32840;52.516;13.294;2024-03-17T17:12:39;9.20;77.50
47090;DHT22;32840;52.516;13.294;2024-03-17T17:15:26;9.10;78.10
47090;DHT22;32840;52.516;13.294;2024-03-17T17:21:51;9.10;79.00
47090;DHT22;32840;52.516;13.294;2024-03-17T17:24:37;9.10;79.20
47090;DHT22;32840;52.516;13.294;2024-03-17T17:27:23;9.10;79.60
47090;DHT22;32840;52.516;13.294;2024-03-17T17:30:28;9.10;79.60
47090;DHT22;32840;52.516;13.294;2024-03-17T17:33:34;9.10;79.90
47090;DHT22;32840;52.516;13.294;2024-03-17T17:36:22;9.00;79.70
47090;DHT22;32840;52.516;13.294;2024-03-17T17:39:07;9.00;80.00
47090;DHT22;32840;52.516;13.294;2024-03-17T17:41:53;8.90;79.60
47090;DHT22;32840;52.516;13.294;2024-03-17T17:44:38;8.90;80.00
47090;DHT22;32840;52.516;13.294;2024-03-17T17:47:23;8.90;80.40